Terminal Aerodrome Forecast
Issued by NWS

Home | Current Version | Previous Version | Text Only | Print | Product List | Glossary On
Versions: 1 2 3 4 5 6 7 8 9 10 11 12 13 14 15 16 17 18 19 20 21 22 23
000
FTUS46 KLOX 210001 RRA
TAFVNY
TAF
KVNY 210001Z 2100/2124 16009KT P6SM BKN025 OVC040
      TEMPO 2100/2102 BKN012 OVC025
     FM210200 12005KT 4SM -SHRA BR BKN012 OVC025
     FM211100 11004KT 6SM -SHRA BKN025 OVC040
     FM212000 18008KT 6SM BR VCSH SCT025 BKN035=

USA.gov is the U.S. government's official web portal to all federal, state and local government web resources and services.